Chon Buri, Thailand

5:11 PM ICT on December 06, 2016 (GMT +0700)
Bangkok (Suvarnabhumi) | | Change Station

Elev 7 ft 13.36 °N, 100.98 °E | Updated 11 minutes ago

Partly Cloudy
Partly Cloudy
82 °F
Feels Like 85 °F
N
9
Wind Variable Wind from ENE

Today
High -- | Low -- °F
--% Chance of Precip.
Yesterday
High -- | Low -- °F
Precip. -- in
Pressure 29.86 in
Visibility 6.2 miles
Clouds Few 3000 ft
Heat Index 85 °F
Dew Point 66 °F
Humidity 58%
Rainfall 0.00 in
Snow Depth Not available.
6:25 AM 5:48 PM
Waxing Crescent, 40% visible
METAR VTBS 061000Z 06008KT 9999 FEW030 28/19 Q1011 NOSIG
Pressure 29.86 in
Visibility 6.2 miles
Clouds Few 3000 ft
Heat Index 85 °F
Dew Point 66 °F
Humidity 58%
Rainfall 0.00 in
Snow Depth Not available.
6:25 AM 5:48 PM
Waxing Crescent, 40% visible
METAR VTBS 061000Z 06008KT 9999 FEW030 28/19 Q1011 NOSIG

10-Day Weather Forecast

No radar image for this location.
×

Almanac

Astronomy

Dec. 06, 2016 Rise Set
Actual Time
Civil Twilight
Nautical Twilight
Astronomical Twilight
Moon
Length of Visible Light
Length of Day
Tomorrow will be .
, % of the Moon is Illuminated

Today's Extremes

Country Highs Country Lows

Community

WunderPhotos

Upload Photos

1,955,935 photos uploaded!

WunderBlog® & News

Nearby

Air Quality

  Air Quality AQ Index Pollutant
Not available.

Snow Depth

Station Depth Elevation

Earthquake Activity

City Distance Mag. Time & Date
Minimum magnitude displayed is 2.5.

Coastal Water Temperatures

Place Temperature

Stations

Nearby Weather Stations

Station Location Temp. Windchill Dew Point Humidity Wind Precip. Elev Updated Type